Main page
METAR-TAF:

METAR-TAF

Airports :

Mannheim City Airport

Mannheim, Germany

latitude: 49-28-21N, longitude: 008-30-56E, elevation: 100 m

Current weather observation

The report was made 37 minutes ago, at 18:50 UTC
Wind 1 kt from variable directions
Temperature 16°C
Humidity 72%
Pressure 1018 hPa
Visibility 10 km or more
no clouds below 1500 m and no cumulonimbus

METAR: EDFM 171850Z VRB01KT CAVOK 16/11 Q1018

Time: 21:27 (19:27 UTC)

Forecast

The report was made 2 hours and 27 minutes ago, at 17:00 UTC
Forecast valid from 17 at 18 UTC to 17 at 21 UTC
Wind 3 kt from variable directions
Visibility 10 km or more
no clouds below 1500 m and no cumulonimbus

TAF: EDFM 171700Z 1718/1721 VRB03KT CAVOK

Weather observations and forecasts of more than 4000 airports (METAR and TAF reports).

The available stations are represented by yellow and red dots on the map.

Hover mouse over dot to see the name of the station.

Then click to see weather observations and forecasts.

To change the map : click on the green buttons with a black cross to zoom in, on the green button with a dash to zoom out, or on the green arrows for adjacent maps.


METAR-TAF: